Terminal Aerodrome Forecast
Issued by NWS Bismarck, ND

Home | Current Version | Previous Version | Graphics & Text | Print | Product List | Glossary On
Versions: 1 2 3 4 5 6 7 8 9 10 11 12 13 14 15 16 17 18 19
000
FTUS43 KBIS 201600 AAA
TAFBIS
TAF AMD
KBIS 201651Z 2017/2112 08005KT P6SM FEW005 BKN070 OVC100
      TEMPO 2017/2020 20005KT P6SM OVC080
     FM202000 21006KT P6SM VCSH SCT050 BKN070
     FM202200 21005KT P6SM FEW060 SCT300
     FM210300 20005KT P6SM FEW300=

USA.gov is the U.S. government's official web portal to all federal, state and local government web resources and services.